メインページ
METAR-TAF:

METAR-TAF

空港 :

プラハ, チェコ共和国

ヴァーツラフ・ハヴェル・プラハ国際空港

緯度: 50-06N, 経度: 014-15E, 海抜: 365m

現時点の気象観測

当レポートは18分前の23:00(UTC)に作成
東/南東の風 5kt
気温 14°C
湿度 63%
気圧 1023 hPa
視程10km以上
1,500メートル以下は雲なし、積乱雲なし

METAR: LKPR 272300Z 12005KT CAVOK 14/07 Q1023 NOSIG

時間: 01:18 (23:18 UTC)

予報

当レポートは6時間18分前の17:00(UTC)に作成
予報は27日の 18時(UTC)から 29日の 00時(UTC)まで有効
の風 6kt
視程10km以上
1,500メートル以下は雲なし、積乱雲なし
28日の 01時(UTC)から 28日の 04時(UTC)まで徐々に
の風 8kt
28日の 11時(UTC)から 28日の 14時(UTC)まで徐々に
東/南東の風 6kt
28日の 17時(UTC)から 28日の 20時(UTC)まで徐々に
の風 10kt

TAF: LKPR 271700Z 2718/2900 09006KT CAVOK BECMG 2801/2804 17008KT BECMG 2811/2814 11006KT BECMG 2817/2820 17010KT

4,000以上の空港の気象観測と天気予報(METAR報とTAF報)

利用可能な観測所は地図上に黄色い丸と赤い丸で示す。

丸の上にカーソルを重ねると観測所名を参照できる。

次にクリックすると気象観測と天気予報を参照できる。

マップの切り替え:黒色「×」印の緑ボタンをクリックして拡大、「-」印の緑ボタンをクリックして縮小、緑色の三角印をクリックして隣りの地図に切り替え


METAR-TAF: